Time;durP1;ratioP1;P1;durP2;ratioP2;P2;SDS_P1;SDS_P2;PMS_P1;PMS_P2;Temp;Humidity;BMP_temperature;BMP_pressure;BME280_temperature;BME280_humidity;BME280_pressure;Samples;Min_cycle;Max_cycle;Signal;HPM_P1;HPM_P2
2022/08/12 00:44:41;;;;;;;0.60;0.60;;;;;;;24.97;40.24;101150.34;5075700;28;20411;-66
2022/08/12 00:47:07;;;;;;;0.70;0.70;;;;;;;24.98;40.52;101141.06;5075165;28;20032;-66
2022/08/12 00:49:32;;;;;;;0.70;0.70;;;;;;;24.98;40.08;101141.06;5075181;28;20058;-66
2022/08/12 00:52:05;;;;;;;0.73;0.73;;;;;;;24.97;40.28;101148.41;5073874;28;20101;-66
2022/08/12 00:54:33;;;;;;;0.52;0.52;;;;;;;24.97;40.34;101147.59;5075359;28;20098;-66
2022/08/12 00:56:58;;;;;;;0.55;0.55;;;;;;;24.99;40.10;101148.16;5075012;28;20087;-66
2022/08/12 00:59:24;;;;;;;0.50;0.50;;;;;;;24.98;39.96;101146.53;5057406;28;20032;-66
2022/08/12 01:01:49;;;;;;;0.80;0.80;;;;;;;24.97;40.01;101153.06;5074916;28;20050;-66
2022/08/12 01:12:31;;;;;;;0.77;0.65;;;;;;;24.93;39.97;101150.03;5055263;28;20490;-65
2022/08/12 01:14:56;;;;;;;0.65;0.65;;;;;;;24.91;40.09;101158.50;5053558;28;20025;-65
2022/08/12 01:17:23;;;;;;;0.63;0.63;;;;;;;24.92;40.17;101160.16;5054995;28;20056;-65
2022/08/12 01:19:49;;;;;;;0.60;0.60;;;;;;;24.88;40.15;101164.50;5055558;28;20028;-65
2022/08/12 01:22:46;;;;;;;0.60;0.60;;;;;;;24.94;40.13;101165.38;5053726;28;20467;-65
2022/08/12 01:25:17;;;;;;;0.60;0.60;;;;;;;24.97;39.70;101161.28;5049785;28;20040;-65
2022/08/12 01:27:42;;;;;;;0.60;0.60;;;;;;;24.97;39.99;101166.75;5058192;28;20025;-65
2022/08/12 01:30:09;;;;;;;0.60;0.60;;;;;;;24.96;39.84;101167.81;5058398;28;20509;-65
2022/08/12 01:32:36;;;;;;;0.93;0.57;;;;;;;24.93;39.45;101170.00;5058280;28;20063;-65
2022/08/12 01:35:05;;;;;;;0.70;0.70;;;;;;;24.91;39.82;101166.72;5058294;28;20021;-65
2022/08/12 01:37:35;;;;;;;0.50;0.50;;;;;;;24.91;39.79;101161.25;5060472;28;20047;-65
2022/08/12 01:40:02;;;;;;;0.70;0.70;;;;;;;24.92;39.47;101165.63;5059780;28;20500;-65
2022/08/12 01:42:30;;;;;;;0.68;0.68;;;;;;;24.93;39.59;101172.72;5041963;28;20025;-65
2022/08/12 01:44:56;;;;;;;0.52;0.52;;;;;;;24.93;39.56;101169.19;5057432;28;20139;-65
2022/08/12 01:47:51;;;;;;;0.73;0.60;;;;;;;24.92;39.52;101168.38;5054172;28;20029;-65
2022/08/12 01:50:16;;;;;;;;;;;;;;;25.11;39.11;101152.34;5054583;28;20045;-65
2022/08/12 01:52:54;;;;;;;0.60;0.60;;;;;;;25.01;39.29;101156.91;5056215;28;19931;-65
2022/08/12 01:55:22;;;;;;;0.65;0.65;;;;;;;24.90;39.40;101154.13;5059103;28;20083;-65
2022/08/12 01:57:49;;;;;;;0.57;0.57;;;;;;;24.95;39.14;101167.00;5057988;28;20382;-65
2022/08/12 02:00:17;;;;;;;0.60;0.60;;;;;;;24.92;39.47;101164.78;5057608;28;20100;-65
2022/08/12 02:03:02;;;;;;;0.77;0.77;;;;;;;24.95;39.41;101163.44;5058451;28;20471;-65
2022/08/12 02:12:00;;;;;;;0.55;0.55;;;;;;;24.93;39.40;101166.44;5064269;28;20042;-65
2022/08/12 02:14:44;;;;;;;0.80;0.80;;;;;;;24.96;39.54;101174.13;5072856;28;20032;-65
2022/08/12 02:17:15;;;;;;;0.60;0.60;;;;;;;24.93;39.29;101172.72;5073757;28;20056;-65
2022/08/12 02:20:04;;;;;;;0.60;0.60;;;;;;;24.96;39.72;101173.28;5073808;28;20036;-65
2022/08/12 02:22:37;;;;;;;0.70;0.70;;;;;;;24.97;39.53;101185.88;5072630;28;20038;-65
2022/08/12 02:25:08;;;;;;;0.60;0.60;;;;;;;24.91;39.76;101185.84;5073423;28;20024;-65
2022/08/12 02:27:40;;;;;;;0.52;0.52;;;;;;;24.91;39.73;101191.31;5072958;28;20027;-65
2022/08/12 02:30:07;;;;;;;0.52;0.52;;;;;;;24.90;39.76;101178.72;5074129;28;20024;-65
2022/08/12 02:32:37;;;;;;;0.50;0.50;;;;;;;24.88;39.88;101182.81;5073264;28;20132;-65
2022/08/12 02:35:04;;;;;;;0.50;0.50;;;;;;;24.89;40.03;101182.56;5072474;28;20021;-65
2022/08/12 02:37:30;;;;;;;0.50;0.50;;;;;;;24.89;40.12;101185.28;5071949;28;20048;-65
2022/08/12 02:39:56;;;;;;;0.50;0.50;;;;;;;24.90;40.16;101176.00;5072240;28;20028;-65
2022/08/12 02:42:22;;;;;;;0.63;0.63;;;;;;;24.90;40.28;101184.19;5055346;28;20054;-65
2022/08/12 02:44:49;;;;;;;0.60;0.60;;;;;;;24.90;40.44;101181.47;5055667;28;20099;-65
2022/08/12 02:47:15;;;;;;;0.47;0.47;;;;;;;24.90;40.26;101178.72;5072621;28;20035;-65
2022/08/12 02:49:45;;;;;;;0.60;0.60;;;;;;;24.91;40.35;101172.19;5055194;28;20024;-65
2022/08/12 02:52:10;;;;;;;0.60;0.60;;;;;;;24.91;40.72;101174.91;5072065;28;20482;-65
2022/08/12 02:54:36;;;;;;;0.60;0.60;;;;;;;24.91;40.64;101174.91;5072270;28;20032;-65
2022/08/12 02:57:02;;;;;;;0.80;0.80;;;;;;;24.87;41.13;101168.34;5072249;28;20458;-65
2022/08/12 02:59:27;;;;;;;0.65;0.65;;;;;;;24.87;41.09;101168.34;5072279;28;20455;-65
2022/08/12 03:01:54;;;;;;;0.60;0.60;;;;;;;24.90;40.94;101173.25;5055103;28;20028;-65
2022/08/12 03:04:28;;;;;;;0.60;0.60;;;;;;;24.90;40.85;101170.53;5073073;28;20028;-65
2022/08/12 03:07:01;;;;;;;;;;;;;;;25.12;41.02;101169.56;5073802;28;20032;-65
2022/08/12 03:09:27;;;;;;;0.50;0.50;;;;;;;25.00;40.86;101177.16;5073307;28;19909;-65
2022/08/12 03:12:01;;;;;;;0.55;0.55;;;;;;;24.93;41.26;101172.72;5058780;28;20033;-65
2022/08/12 03:14:27;;;;;;;0.70;0.70;;;;;;;24.92;41.32;101171.09;5055724;28;20021;-65
2022/08/12 03:16:59;;;;;;;0.60;0.60;;;;;;;24.87;41.57;101173.81;5056962;28;20105;-65
2022/08/12 03:19:25;;;;;;;0.70;0.70;;;;;;;24.88;41.54;101177.34;5039479;28;20494;-65
2022/08/12 03:21:53;;;;;;;0.70;0.70;;;;;;;24.87;41.64;101172.97;5056727;28;20041;-65
2022/08/12 03:24:18;;;;;;;0.80;0.80;;;;;;;24.85;41.72;101165.06;5055855;28;20028;-65
2022/08/12 03:26:44;;;;;;;0.68;0.68;;;;;;;24.87;41.84;101168.34;5039140;28;20079;-65
2022/08/12 03:29:10;;;;;;;0.55;0.55;;;;;;;24.89;41.62;101165.34;5055679;28;20052;-65
2022/08/12 03:31:35;;;;;;;0.50;0.50;;;;;;;24.85;41.72;101159.59;5039206;28;20118;-65
2022/08/12 03:34:09;;;;;;;0.50;0.50;;;;;;;24.86;41.89;101161.22;5056306;28;20487;-65
2022/08/12 03:36:36;;;;;;;0.60;0.60;;;;;;;24.85;41.94;101154.13;5056485;28;20462;-65
2022/08/12 03:42:13;;;;;;;0.65;0.65;;;;;;;24.88;42.01;101164.50;5056615;28;20170;-65
2022/08/12 04:01:15;;;;;;;0.50;0.50;;;;;;;24.85;41.99;101165.06;5055120;28;20075;-66
2022/08/12 04:03:53;;;;;;;0.60;0.60;;;;;;;24.85;42.04;101159.59;5055170;28;20020;-66
2022/08/12 04:06:20;;;;;;;0.60;0.60;;;;;;;24.84;41.90;101149.72;5054912;28;20475;-66
2022/08/12 04:08:49;;;;;;;0.50;0.50;;;;;;;24.83;41.90;101145.34;5055912;28;20036;-66
2022/08/12 04:14:16;;;;;;;0.45;0.45;;;;;;;24.83;42.03;101128.94;5056265;28;20040;-66
2022/08/12 04:16:41;;;;;;;0.60;0.55;;;;;;;24.82;42.10;101143.72;5056073;28;20033;-66
2022/08/12 04:19:07;;;;;;;0.57;0.57;;;;;;;24.82;41.95;101130.03;5054871;28;20361;-66
2022/08/12 04:21:32;;;;;;;0.50;0.50;;;;;;;24.80;42.29;101124.03;5055842;28;20442;-66
2022/08/12 04:23:59;;;;;;;0.50;0.50;;;;;;;24.77;42.26;101127.28;5054784;28;20082;-66
2022/08/12 04:26:26;;;;;;;0.68;0.68;;;;;;;24.82;42.37;101134.66;5054808;28;20111;-66
2022/08/12 04:28:55;;;;;;;0.60;0.60;;;;;;;24.84;42.20;101130.59;5055507;28;20029;-66
2022/08/12 04:31:34;;;;;;;0.40;0.40;;;;;;;24.86;42.36;101133.88;5054268;28;20521;-65
2022/08/12 04:34:00;;;;;;;0.50;0.50;;;;;;;24.85;42.08;101131.41;5055511;28;20056;-65
2022/08/12 04:36:26;;;;;;;0.50;0.50;;;;;;;24.83;42.23;101139.88;5055375;28;20379;-65
2022/08/12 04:38:55;;;;;;;0.50;0.50;;;;;;;24.87;42.09;101132.81;5055299;28;20025;-65
2022/08/12 04:41:20;;;;;;;0.40;0.40;;;;;;;24.89;42.37;101138.81;5055430;28;20029;-65
2022/08/12 04:43:46;;;;;;;0.50;0.50;;;;;;;24.89;42.41;101141.56;5055490;28;20476;-65
2022/08/12 04:46:12;;;;;;;0.30;0.30;;;;;;;24.90;42.35;101137.72;5055552;28;20029;-65
2022/08/12 04:48:37;;;;;;;0.43;0.43;;;;;;;24.90;42.26;101142.38;5055198;28;20017;-65
2022/08/12 04:51:03;;;;;;;0.32;0.32;;;;;;;24.91;42.42;101144.84;5055401;28;20025;-66
2022/08/12 04:53:29;;;;;;;0.65;0.65;;;;;;;24.90;42.56;101145.91;5054201;28;20375;-66
2022/08/12 04:55:55;;;;;;;0.43;0.43;;;;;;;24.88;42.68;101145.38;5054076;28;20108;-67
2022/08/12 04:58:20;;;;;;;0.50;0.50;;;;;;;24.83;42.73;101148.06;5037139;28;20100;-67
2022/08/12 05:00:46;;;;;;;0.40;0.40;;;;;;;24.87;43.08;101146.47;5054855;28;20120;-67
2022/08/12 05:03:12;;;;;;;0.52;0.52;;;;;;;24.83;42.93;101137.13;5054700;28;20048;-65
2022/08/12 05:05:39;;;;;;;0.50;0.50;;;;;;;24.86;43.24;101144.81;5055025;28;20031;-65
2022/08/12 05:08:09;;;;;;;0.50;0.50;;;;;;;24.89;42.81;101144.28;5054622;28;20025;-66
2022/08/12 05:10:35;;;;;;;0.50;0.50;;;;;;;24.86;43.19;101139.34;5054713;28;20021;-66
2022/08/12 05:13:01;;;;;;;0.50;0.50;;;;;;;24.87;43.47;101141.00;5074530;28;20032;-65
2022/08/12 05:15:26;;;;;;;0.73;0.57;;;;;;;24.90;43.39;101150.56;5074818;28;20028;-66
2022/08/12 05:17:52;;;;;;;0.55;0.55;;;;;;;24.86;43.54;101141.25;5074294;28;20489;-66
2022/08/12 05:20:19;;;;;;;0.40;0.40;;;;;;;24.87;43.50;101146.47;5074289;28;20020;-66
2022/08/12 05:22:44;;;;;;;0.47;0.47;;;;;;;24.88;43.57;101148.09;5074312;28;20031;-65
2022/08/12 05:25:11;;;;;;;0.47;0.47;;;;;;;24.86;43.49;101149.47;5074224;28;20029;-65
2022/08/12 05:27:38;;;;;;;0.88;0.70;;;;;;;24.83;43.60;101148.06;5074581;28;20043;-65
2022/08/12 05:30:05;;;;;;;1.70;0.65;;;;;;;24.84;44.28;101141.53;5074516;28;20024;-65
2022/08/12 05:32:30;;;;;;;0.50;0.50;;;;;;;24.91;44.08;101146.75;5074262;28;20048;-66
2022/08/12 05:34:55;;;;;;;0.60;0.60;;;;;;;24.89;44.36;101138.81;5072729;28;20040;-66
2022/08/12 05:37:21;;;;;;;0.50;0.50;;;;;;;24.90;44.39;101132.25;5073866;28;20028;-66
2022/08/12 05:39:46;;;;;;;0.60;0.52;;;;;;;24.91;44.58;101136.63;5073863;28;20025;-66
2022/08/12 05:42:12;;;;;;;0.85;0.60;;;;;;;24.92;44.45;101132.81;5074294;28;20023;-66
2022/08/12 05:44:39;;;;;;;0.40;0.40;;;;;;;24.89;44.74;101129.81;5074157;28;20048;-67
2022/08/12 05:47:05;;;;;;;1.85;0.52;;;;;;;24.92;44.69;101138.28;5074511;28;20028;-66
2022/08/12 05:49:33;;;;;;;0.68;0.50;;;;;;;24.87;44.87;101130.06;5074356;28;20028;-66
2022/08/12 05:51:59;;;;;;;0.70;0.70;;;;;;;24.89;44.88;101136.09;5073911;28;20032;-65
2022/08/12 05:54:24;;;;;;;0.65;0.60;;;;;;;24.90;44.67;101128.69;5074432;28;20035;-65
2022/08/12 05:56:50;;;;;;;0.52;0.47;;;;;;;24.92;44.83;101112.84;5073723;28;20417;-65
2022/08/12 05:59:15;;;;;;;0.93;0.70;;;;;;;24.88;44.70;101109.81;5073881;28;20024;-65
2022/08/12 06:01:41;;;;;;;0.70;0.70;;;;;;;24.91;44.53;101114.75;5073775;28;20451;-65
2022/08/12 06:04:08;;;;;;;0.50;0.50;;;;;;;24.95;44.73;101112.31;5073882;28;20489;-65
2022/08/12 06:06:40;;;;;;;0.40;0.40;;;;;;;24.96;44.63;101107.66;5073950;28;20056;-65
2022/08/12 06:09:08;;;;;;;0.50;0.50;;;;;;;24.95;44.36;101108.78;5073640;28;20028;-65
2022/08/12 06:11:34;;;;;;;0.47;0.47;;;;;;;24.93;44.11;101100.84;5066476;28;20033;-64
2022/08/12 06:13:59;;;;;;;0.93;0.57;;;;;;;24.96;44.24;101099.47;5053426;28;20080;-65
2022/08/12 06:16:25;;;;;;;0.40;0.40;;;;;;;24.92;44.09;101100.03;5053806;28;20037;-65
2022/08/12 06:18:51;;;;;;;0.50;0.50;;;;;;;24.91;44.12;101103.00;5053704;28;20103;-65
2022/08/12 06:21:20;;;;;;;0.60;0.60;;;;;;;24.90;44.28;101099.44;5053602;28;20032;-66
2022/08/12 06:23:45;;;;;;;0.50;0.50;;;;;;;24.85;44.43;101093.13;5054193;28;20032;-65
2022/08/12 06:26:11;;;;;;;0.60;0.50;;;;;;;24.91;44.53;101087.44;5053069;28;20391;-65
2022/08/12 06:28:42;;;;;;;0.60;0.60;;;;;;;24.84;44.75;101091.50;5053265;28;20456;-65
2022/08/12 06:31:14;;;;;;;0.95;0.50;;;;;;;24.87;44.71;101089.06;5053516;28;20104;-65
2022/08/12 06:33:43;;;;;;;0.60;0.52;;;;;;;24.85;44.85;101098.59;5053668;28;20126;-64
2022/08/12 06:36:09;;;;;;;1.23;0.50;;;;;;;24.85;45.03;101098.59;5053348;28;20037;-64
2022/08/12 06:38:35;;;;;;;0.50;0.50;;;;;;;24.82;45.43;101096.38;5053191;28;20036;-64
2022/08/12 06:43:44;;;;;;;1.15;0.60;;;;;;;24.88;44.84;101101.63;5037916;28;20036;-64
2022/08/12 06:46:12;;;;;;;0.60;0.60;;;;;;;24.84;45.24;101102.44;5053533;28;20438;-64
2022/08/12 06:48:41;;;;;;;1.20;0.68;;;;;;;24.83;44.90;101101.59;5052741;28;20028;-64
2022/08/12 06:51:07;;;;;;;0.70;0.70;;;;;;;24.89;45.09;101100.53;5053119;28;20037;-65
2022/08/12 06:53:32;;;;;;;3.17;0.85;;;;;;;24.84;44.92;101106.00;5051587;28;20108;-66
2022/08/12 06:55:59;;;;;;;0.88;0.60;;;;;;;24.87;44.98;101108.19;5052879;28;20116;-66
2022/08/12 06:58:25;;;;;;;1.05;0.65;;;;;;;24.90;45.07;101102.16;5053137;28;20108;-65
2022/08/12 07:00:51;;;;;;;1.02;0.80;;;;;;;24.89;44.91;101111.47;5053128;28;20025;-65
2022/08/12 07:03:24;;;;;;;1.27;0.90;;;;;;;24.85;45.09;101110.38;5052945;28;20087;-65
2022/08/12 07:05:50;;;;;;;4.23;1.10;;;;;;;24.88;45.03;101107.09;5053469;28;20140;-66
2022/08/12 07:08:15;;;;;;;2.78;0.93;;;;;;;24.96;44.85;101110.41;5051911;28;20254;-67
2022/08/12 07:10:52;;;;;;;0.98;0.90;;;;;;;24.94;44.71;101113.44;5053023;28;20021;-66
2022/08/12 07:13:17;;;;;;;1.67;0.90;;;;;;;24.93;44.67;101112.59;5033028;28;20109;-69
2022/08/12 07:15:44;;;;;;;1.60;1.30;;;;;;;24.87;44.77;101121.03;5032979;28;20033;-68
2022/08/12 07:18:19;;;;;;;2.50;1.00;;;;;;;24.91;44.83;101117.50;5033105;28;20040;-69
2022/08/12 07:20:46;;;;;;;2.83;0.90;;;;;;;24.98;44.62;101119.19;5033379;28;20141;-69
2022/08/12 07:23:12;;;;;;;3.88;1.15;;;;;;;24.98;44.90;101116.44;5032848;28;20053;-68
2022/08/12 07:25:38;;;;;;;1.38;1.00;;;;;;;25.00;44.79;101122.47;5032886;28;20060;-68
2022/08/12 07:28:14;;;;;;;1.38;1.10;;;;;;;25.02;44.75;101120.28;5032776;28;20029;-68
2022/08/12 07:30:40;;;;;;;0.95;0.93;;;;;;;25.00;44.66;101117.00;5033103;28;20021;-68
2022/08/12 07:33:08;;;;;;;3.05;1.20;;;;;;;25.00;44.87;101117.00;5032799;28;20476;-68
2022/08/12 07:35:41;;;;;;;2.75;1.17;;;;;;;25.09;44.43;101127.16;5033343;28;20037;-68
2022/08/12 07:38:23;;;;;;;2.83;1.30;;;;;;;25.02;44.94;101121.09;5032807;28;20045;-69
2022/08/12 07:40:52;;;;;;;3.20;1.00;;;;;;;25.04;44.44;101108.00;5033122;28;20021;-68
2022/08/12 07:43:18;;;;;;;1.48;0.90;;;;;;;25.08;44.48;101108.28;5033625;28;20071;-68
2022/08/12 07:45:44;;;;;;;1.52;1.10;;;;;;;25.11;44.35;101107.72;5034274;28;20021;-69
2022/08/12 07:48:10;;;;;;;3.10;1.30;;;;;;;25.02;45.03;101109.34;5033717;28;20083;-68
2022/08/12 07:50:35;;;;;;;2.25;1.30;;;;;;;25.07;44.80;101109.38;5033207;28;20033;-68
2022/08/12 07:53:01;;;;;;;2.25;1.10;;;;;;;25.07;44.73;101103.91;5032758;28;20025;-68
2022/08/12 07:55:27;;;;;;;1.77;1.00;;;;;;;25.10;44.70;101111.56;5031412;28;20029;-68
2022/08/12 07:57:57;;;;;;;2.03;1.17;;;;;;;25.10;44.70;101106.09;5033174;28;20041;-68
2022/08/12 08:00:23;;;;;;;1.38;1.00;;;;;;;25.08;44.54;101103.63;5035167;28;20044;-69
2022/08/12 08:02:49;;;;;;;1.02;0.93;;;;;;;25.10;44.82;101108.84;5036865;28;20029;-68
2022/08/12 08:05:15;;;;;;;1.70;0.93;;;;;;;25.10;44.62;101111.56;5036693;28;20364;-68
2022/08/12 08:07:41;;;;;;;2.15;1.15;;;;;;;25.10;44.47;101106.91;5034890;28;20421;-68
2022/08/12 08:10:09;;;;;;;2.88;1.00;;;;;;;25.06;44.68;101107.72;5036069;28;20109;-68
2022/08/12 08:12:54;;;;;;;1.17;0.80;;;;;;;25.12;44.69;101112.13;5062585;28;20032;-68
2022/08/12 08:15:26;;;;;;;1.20;1.10;;;;;;;25.09;44.70;101115.38;5079640;28;20029;-69
2022/08/12 08:18:01;;;;;;;2.10;0.95;;;;;;;25.05;45.00;101114.28;5075971;28;20512;-68
2022/08/12 08:20:28;;;;;;;1.10;1.00;;;;;;;25.06;44.85;101111.28;5076462;28;20032;-69
2022/08/12 08:22:57;;;;;;;0.90;0.90;;;;;;;25.06;45.18;101107.72;5078959;28;20050;-68
2022/08/12 08:25:29;;;;;;;1.75;0.95;;;;;;;25.07;44.86;101110.19;5076375;28;20028;-68
2022/08/12 08:28:02;;;;;;;1.83;1.20;;;;;;;25.04;44.93;101113.47;5076145;28;20108;-68
2022/08/12 08:30:29;;;;;;;1.30;1.05;;;;;;;25.07;44.80;101112.09;5076244;28;20157;-68
2022/08/12 08:32:55;;;;;;;1.20;1.10;;;;;;;25.07;45.03;101115.66;5075712;28;20106;-68
2022/08/12 08:35:22;;;;;;;1.15;1.00;;;;;;;25.07;45.34;101110.19;5075817;28;20033;-69
2022/08/12 08:37:48;;;;;;;1.10;0.90;;;;;;;25.09;44.88;101109.91;5075692;28;20021;-68
2022/08/12 08:42:58;;;;;;;1.20;1.10;;;;;;;25.09;44.86;101116.22;5075608;28;20043;-68
2022/08/12 08:45:23;;;;;;;0.95;0.70;;;;;;;25.11;45.29;101108.56;5075527;28;20024;-68
2022/08/12 08:47:50;;;;;;;1.50;1.17;;;;;;;25.12;45.08;101114.84;5075700;28;20360;-68
2022/08/12 08:50:16;;;;;;;1.52;1.17;;;;;;;25.12;45.24;101103.91;5075415;28;20028;-68
2022/08/12 08:52:44;;;;;;;1.45;1.10;;;;;;;25.11;44.99;101105.00;5075021;28;20024;-70
2022/08/12 08:55:12;;;;;;;1.00;1.00;;;;;;;25.15;45.06;101105.28;5075710;28;20028;-69
2022/08/12 08:57:39;;;;;;;1.20;1.10;;;;;;;25.14;45.15;101109.94;5075370;28;20408;-68
2022/08/12 09:00:05;;;;;;;1.05;0.90;;;;;;;25.12;44.94;101107.47;5075162;28;20028;-68
2022/08/12 09:02:30;;;;;;;1.20;1.10;;;;;;;25.11;45.16;101108.56;5074797;28;20020;-69
2022/08/12 09:04:56;;;;;;;1.00;1.00;;;;;;;25.10;45.54;101111.56;5075354;28;20024;-69
2022/08/12 09:07:21;;;;;;;2.70;1.17;;;;;;;25.10;45.33;101106.09;5074646;28;20070;-69
2022/08/12 09:09:47;;;;;;;1.95;1.00;;;;;;;25.15;45.34;101108.84;5075289;28;20040;-68
2022/08/12 09:14:57;;;;;;;1.00;1.00;;;;;;;25.12;45.78;101109.38;5055573;28;20036;-69
2022/08/12 09:17:22;;;;;;;1.63;1.05;;;;;;;25.10;45.80;101109.66;5055032;28;20025;-68
2022/08/12 09:19:48;;;;;;;0.98;0.98;;;;;;;25.10;45.73;101114.31;5055591;28;20074;-68
2022/08/12 09:22:14;;;;;;;1.88;1.40;;;;;;;25.12;45.83;101112.13;5054674;28;20033;-68
2022/08/12 09:24:39;;;;;;;1.85;1.30;;;;;;;25.09;45.74;101118.13;5055533;28;20430;-68
2022/08/12 09:27:07;;;;;;;2.67;1.27;;;;;;;25.15;45.55;101118.94;5055402;28;20094;-69
2022/08/12 09:29:32;;;;;;;1.38;1.25;;;;;;;25.18;45.70;101118.44;5054875;28;20029;-68
2022/08/12 09:31:59;;;;;;;1.20;1.10;;;;;;;25.15;45.76;101105.28;5054920;28;20082;-68
2022/08/12 09:34:28;;;;;;;2.58;1.30;;;;;;;25.11;46.18;101115.94;5054904;28;20032;-68
2022/08/12 09:36:54;;;;;;;2.85;1.30;;;;;;;25.14;46.09;101107.19;5054809;28;20040;-67
2022/08/12 09:39:19;;;;;;;1.30;1.20;;;;;;;25.18;45.97;101108.31;5054446;28;20025;-68
2022/08/12 09:45:19;;;;;;;2.67;1.58;;;;;;;25.19;46.09;101112.69;5054080;28;20410;-67
2022/08/12 09:47:15;;;;;;;1.40;1.30;;;;;;;25.29;46.13;101103.75;5053975;28;20087;-67
2022/08/12 09:49:40;;;;;;;1.40;1.30;;;;;;;25.28;46.01;101089.25;5054014;28;20131;-67
2022/08/12 09:52:06;;;;;;;1.48;1.33;;;;;;;25.30;45.86;101086.22;5054633;28;20059;-67
2022/08/12 09:54:31;;;;;;;7.85;3.47;;;;;;;25.29;46.09;101090.88;5053831;28;20423;-68
2022/08/12 09:56:56;;;;;;;10.65;4.43;;;;;;;25.35;45.77;101090.88;5054179;28;20417;-66
2022/08/12 09:59:22;;;;;;;12.80;5.55;;;;;;;25.26;45.78;101087.84;5054134;28;20429;-68
2022/08/12 10:01:48;;;;;;;17.13;6.55;;;;;;;25.29;45.76;101090.88;5053872;28;20025;-68
2022/08/12 10:04:14;;;;;;;17.17;7.45;;;;;;;25.31;45.92;101087.88;5054009;28;20393;-68
2022/08/12 10:06:42;;;;;;;17.48;7.60;;;;;;;25.33;45.73;101084.88;5053933;28;20149;-66
2022/08/12 10:09:08;;;;;;;13.38;6.07;;;;;;;25.36;45.69;101082.41;5053487;28;20024;-68
2022/08/12 10:14:19;;;;;;;10.65;4.50;;;;;;;25.34;45.79;101072.84;5073387;28;20036;-67
2022/08/12 10:16:44;;;;;;;10.57;4.30;;;;;;;25.27;45.89;101078.56;5073135;28;20016;-69
2022/08/12 10:19:10;;;;;;;8.88;3.95;;;;;;;25.30;46.07;101076.13;5073208;28;20101;-68
2022/08/12 10:21:36;;;;;;;7.20;3.53;;;;;;;25.27;46.33;101067.63;5073486;28;20024;-68
2022/08/12 10:24:09;;;;;;;7.78;3.50;;;;;;;25.32;45.96;101072.25;5072628;28;20158;-69
2022/08/12 10:29:37;;;;;;;4.85;2.72;;;;;;;25.35;45.74;101063.53;5072144;28;20081;-68
2022/08/12 10:32:05;;;;;;;3.65;1.98;;;;;;;25.35;45.50;101061.59;5072935;28;20479;-67
2022/08/12 10:34:30;;;;;;;2.58;1.88;;;;;;;25.37;45.44;101061.34;5073528;28;20029;-69
2022/08/12 10:36:59;;;;;;;3.40;1.88;;;;;;;25.36;45.43;101066.00;5073207;28;20020;-69
2022/08/12 10:39:27;;;;;;;4.65;2.92;;;;;;;25.38;45.37;101061.06;5073490;28;20033;-68
2022/08/12 10:44:36;;;;;;;5.00;2.70;;;;;;;25.40;45.46;101069.00;5073184;28;20035;-69
2022/08/12 10:47:03;;;;;;;4.65;2.70;;;;;;;25.45;45.33;101069.03;5073366;28;20028;-69
2022/08/12 10:49:33;;;;;;;26.08;9.40;;;;;;;25.44;45.03;101072.84;5073403;28;20069;-68
2022/08/12 10:52:00;;;;;;;16.45;6.22;;;;;;;25.41;45.08;101062.47;5073253;28;20032;-68
2022/08/12 10:54:26;;;;;;;8.45;4.22;;;;;;;25.34;45.37;101061.91;5073252;28;20017;-68
2022/08/12 10:56:52;;;;;;;6.43;3.50;;;;;;;25.42;45.11;101073.13;5072949;28;20074;-68
2022/08/12 10:59:20;;;;;;;28.48;10.75;;;;;;;25.47;44.93;101064.94;5073402;28;20021;-68
2022/08/12 11:01:55;;;;;;;12.63;5.38;;;;;;;25.44;44.80;101064.63;5073728;28;20455;-68
2022/08/12 11:04:21;;;;;;;9.60;4.03;;;;;;;25.51;44.57;101062.47;5072894;28;20032;-68
2022/08/12 11:06:46;;;;;;;5.55;2.92;;;;;;;25.47;44.76;101056.72;5073312;28;20040;-68
2022/08/12 11:09:31;;;;;;;4.95;2.90;;;;;;;25.47;44.71;101055.88;5071867;28;20024;-68
2022/08/12 11:12:01;;;;;;;4.72;2.60;;;;;;;25.46;44.74;101046.06;5069128;28;20017;-68
2022/08/12 11:14:32;;;;;;;4.38;2.20;;;;;;;25.49;44.38;101042.75;5052981;28;20085;-67
2022/08/12 11:17:03;;;;;;;3.38;1.90;;;;;;;25.43;44.73;101043.84;5052973;28;20021;-67
2022/08/12 11:19:29;;;;;;;2.20;1.50;;;;;;;25.51;44.55;101047.94;5053078;28;20036;-67
2022/08/12 11:21:55;;;;;;;1.88;1.40;;;;;;;25.45;44.62;101041.66;5052990;28;20078;-67
2022/08/12 11:24:21;;;;;;;1.90;1.50;;;;;;;25.48;44.69;101038.38;5053432;28;20029;-68
2022/08/12 11:26:50;;;;;;;2.10;1.55;;;;;;;25.49;44.69;101042.75;5052762;28;20486;-67
2022/08/12 11:29:20;;;;;;;2.45;1.45;;;;;;;25.47;44.46;101029.38;5051814;28;20021;-68
2022/08/12 11:31:46;;;;;;;2.63;1.50;;;;;;;25.51;44.26;101037.84;5052573;28;20025;-67
2022/08/12 11:34:11;;;;;;;1.75;1.50;;;;;;;25.51;44.12;101029.63;5053682;28;20060;-67
2022/08/12 11:36:37;;;;;;;4.43;2.03;;;;;;;25.52;44.17;101031.25;5056676;28;20029;-67
2022/08/12 11:39:03;;;;;;;2.35;1.60;;;;;;;25.52;44.10;101027.72;5056572;28;20039;-69
2022/08/12 11:41:28;;;;;;;1.92;1.50;;;;;;;25.51;44.21;101037.00;5055302;28;20527;-68
2022/08/12 11:43:54;;;;;;;1.60;1.50;;;;;;;25.56;44.01;101021.44;5056404;28;20029;-67
2022/08/12 11:46:19;;;;;;;1.60;1.50;;;;;;;25.55;43.94;101024.44;5056567;28;20098;-67
2022/08/12 11:48:45;;;;;;;3.10;1.58;;;;;;;25.57;43.61;101020.31;5034250;28;20091;-68
2022/08/12 11:51:10;;;;;;;1.63;1.27;;;;;;;25.55;43.64;101025.25;5017736;28;20048;-68
2022/08/12 11:53:36;;;;;;;1.30;1.20;;;;;;;25.54;43.54;101017.31;5034494;28;20113;-68
2022/08/12 11:56:02;;;;;;;2.65;1.30;;;;;;;25.53;43.65;101021.97;5034039;28;20466;-67
2022/08/12 11:58:28;;;;;;;2.38;1.30;;;;;;;25.54;43.72;101023.59;5034027;28;20034;-68
2022/08/12 12:00:53;;;;;;;1.77;1.20;;;;;;;25.54;43.69;101028.25;5034211;28;20029;-69
2022/08/12 12:03:19;;;;;;;1.23;1.13;;;;;;;25.56;43.36;101026.91;5035313;28;20033;-67
2022/08/12 12:05:44;;;;;;;1.02;0.90;;;;;;;25.56;43.34;101023.31;5034935;28;20029;-68
2022/08/12 12:08:25;;;;;;;1.92;1.42;;;;;;;25.58;43.19;101019.25;5038682;28;20042;-68
2022/08/12 12:10:50;;;;;;;1.70;1.15;;;;;;;25.59;43.10;101015.38;5042485;28;20041;-69
2022/08/12 12:13:17;;;;;;;1.00;0.90;;;;;;;25.54;43.07;101018.13;5058067;28;20040;-68
2022/08/12 12:15:42;;;;;;;1.20;1.08;;;;;;;25.55;42.86;101013.50;5066853;28;20093;-68
2022/08/12 12:18:23;;;;;;;2.60;1.17;;;;;;;25.53;43.04;101019.25;5065168;28;20040;-66
2022/08/12 12:20:50;;;;;;;1.70;1.20;;;;;;;25.54;42.97;101022.78;5069306;28;20029;-69
2022/08/12 12:23:15;;;;;;;0.80;0.80;;;;;;;25.47;43.31;101026.63;5055682;28;20086;-69
2022/08/12 12:25:40;;;;;;;0.80;0.80;;;;;;;25.49;43.16;101029.06;5074927;28;20036;-68
2022/08/12 12:28:06;;;;;;;1.10;1.00;;;;;;;25.46;43.18;101029.63;5091360;28;20021;-68
2022/08/12 12:30:33;;;;;;;1.20;0.98;;;;;;;25.45;43.07;101023.31;5088653;28;20034;-66
2022/08/12 12:32:58;;;;;;;1.48;0.90;;;;;;;25.45;42.89;101022.50;5088032;28;20048;-66
2022/08/12 12:35:23;;;;;;;0.80;0.80;;;;;;;25.43;42.89;101013.75;5084913;28;20017;-67
2022/08/12 12:37:54;;;;;;;1.05;0.90;;;;;;;25.45;42.92;101015.09;5082304;28;20371;-67
2022/08/12 12:40:20;;;;;;;1.23;0.90;;;;;;;25.45;42.77;101012.38;5076753;28;20047;-67
2022/08/12 12:42:45;;;;;;;0.60;0.60;;;;;;;25.41;42.77;101021.41;5079378;28;20017;-67
2022/08/12 12:45:12;;;;;;;1.15;1.00;;;;;;;25.43;42.52;101021.97;5076158;28;20462;-67
2022/08/12 12:47:54;;;;;;;1.02;0.80;;;;;;;25.44;42.57;101029.06;5075762;28;20029;-67
2022/08/12 12:50:19;;;;;;;1.10;1.00;;;;;;;25.46;42.38;101018.69;5076130;28;20032;-68
2022/08/12 12:52:45;;;;;;;1.17;1.02;;;;;;;25.49;42.28;101026.31;5076353;28;20028;-67
2022/08/12 12:55:13;;;;;;;7.45;3.10;;;;;;;25.47;42.31;101014.84;5077251;28;20020;-67
2022/08/12 12:57:41;;;;;;;12.95;4.78;;;;;;;25.41;42.14;101013.22;5076138;28;20040;-68
2022/08/12 13:00:13;;;;;;;10.30;4.28;;;;;;;25.46;42.43;101013.22;5076070;28;20031;-68
2022/08/12 13:02:40;;;;;;;7.90;3.22;;;;;;;25.45;42.44;101014.28;5075872;28;20486;-67
2022/08/12 13:05:06;;;;;;;7.20;2.50;;;;;;;25.48;42.23;101009.09;5076421;28;20033;-67
2022/08/12 13:07:38;;;;;;;4.72;2.30;;;;;;;25.48;42.26;101008.28;5076143;28;20024;-67